Time;durP1;ratioP1;P1;durP2;ratioP2;P2;SDS_P1;SDS_P2;PMS_P1;PMS_P2;Temp;Humidity;BMP_temperature;BMP_pressure;BME280_temperature;BME280_humidity;BME280_pressure;Samples;Min_cycle;Max_cycle;Signal;HPM_P1;HPM_P2
2024/01/04 00:01:13;;;;;;;7.30;2.10;;;;;;;7.65;100.00;99293.44;4988572;28;20119;-72
2024/01/04 00:03:40;;;;;;;6.70;1.92;;;;;;;7.61;100.00;99299.72;4988873;28;20068;-73
2024/01/04 00:06:08;;;;;;;8.15;1.63;;;;;;;7.58;100.00;99295.47;4976332;28;20137;-73
2024/01/04 00:08:35;;;;;;;3.95;1.20;;;;;;;7.55;100.00;99303.44;4988528;28;20422;-73
2024/01/04 00:11:04;;;;;;;5.55;1.35;;;;;;;7.53;100.00;99309.69;4989430;28;20054;-72
2024/01/04 00:13:31;;;;;;;6.93;1.60;;;;;;;7.48;100.00;99316.91;4988277;28;20094;-73
2024/01/04 00:15:58;;;;;;;5.45;1.65;;;;;;;7.45;100.00;99321.34;4989742;28;20569;-73
2024/01/04 00:18:26;;;;;;;4.57;1.42;;;;;;;7.43;100.00;99314.44;4989736;28;20431;-73
2024/01/04 00:20:53;;;;;;;6.22;1.67;;;;;;;7.41;100.00;99321.53;4987544;28;20133;-72
2024/01/04 00:23:20;;;;;;;6.80;1.50;;;;;;;7.37;100.00;99319.97;4989088;28;20085;-73
2024/01/04 00:25:47;;;;;;;7.70;1.75;;;;;;;7.37;100.00;99322.56;4988720;28;20046;-73
2024/01/04 00:28:14;;;;;;;6.07;1.85;;;;;;;7.36;100.00;99329.59;4988684;28;20049;-72
2024/01/04 00:30:41;;;;;;;3.60;1.35;;;;;;;7.34;100.00;99339.28;4987699;28;20070;-72
2024/01/04 00:33:09;;;;;;;9.00;2.45;;;;;;;7.35;100.00;99340.13;4988372;28;20139;-72
2024/01/04 00:35:36;;;;;;;5.75;1.30;;;;;;;7.33;100.00;99345.44;4987853;28;20410;-72
2024/01/04 00:38:03;;;;;;;6.10;1.73;;;;;;;7.33;100.00;99352.44;4988558;28;20050;-72
2024/01/04 00:40:31;;;;;;;4.50;1.27;;;;;;;7.33;100.00;99355.94;4988681;28;20049;-72
2024/01/04 00:42:58;;;;;;;7.07;1.75;;;;;;;7.35;100.00;99361.09;4988539;28;20108;-72
2024/01/04 00:45:25;;;;;;;3.97;1.23;;;;;;;7.37;100.00;99381.13;4989084;28;20034;-72
2024/01/04 00:47:53;;;;;;;7.25;2.08;;;;;;;7.36;100.00;99368.94;4971425;28;20211;-73
2024/01/04 00:50:21;;;;;;;8.20;1.88;;;;;;;7.35;100.00;99384.69;4988236;28;20045;-73
2024/01/04 00:52:48;;;;;;;5.05;1.30;;;;;;;7.35;100.00;99393.44;4987821;28;20510;-72
2024/01/04 00:55:29;;;;;;;5.78;1.35;;;;;;;7.34;100.00;99396.97;4987764;28;20046;-72
2024/01/04 00:57:56;;;;;;;3.08;1.30;;;;;;;7.31;100.00;99407.56;5020535;28;20058;-72
2024/01/04 01:00:23;;;;;;;5.25;1.80;;;;;;;7.29;100.00;99412.00;4993351;28;20053;-72
2024/01/04 01:02:50;;;;;;;4.93;1.60;;;;;;;7.29;100.00;99420.75;4988521;28;20054;-72
2024/01/04 01:05:18;;;;;;;5.00;1.95;;;;;;;7.28;100.00;99431.28;4992662;28;20033;-72
2024/01/04 01:07:45;;;;;;;6.05;2.30;;;;;;;7.26;100.00;99433.13;4986647;28;20050;-72
2024/01/04 01:10:12;;;;;;;3.42;2.00;;;;;;;7.27;100.00;99442.69;4971020;28;20074;-72
2024/01/04 01:12:39;;;;;;;6.60;2.28;;;;;;;7.28;100.00;99449.63;4988114;28;20081;-72
2024/01/04 01:15:06;;;;;;;5.40;1.98;;;;;;;7.27;100.00;99461.91;4987247;28;20130;-71
2024/01/04 01:17:34;;;;;;;5.00;2.00;;;;;;;7.27;100.00;99463.69;4986240;28;20046;-71
2024/01/04 01:20:01;;;;;;;5.72;2.10;;;;;;;7.23;100.00;99465.53;4985027;28;20042;-72
2024/01/04 01:22:28;;;;;;;2.88;1.67;;;;;;;7.24;100.00;99482.97;4968796;28;20772;-71
2024/01/04 01:24:56;;;;;;;5.22;2.03;;;;;;;7.22;100.00;99484.81;4985146;28;20034;-71
2024/01/04 01:27:24;;;;;;;3.75;2.05;;;;;;;7.20;100.00;99483.16;4986867;28;20084;-71
2024/01/04 01:29:51;;;;;;;4.28;1.90;;;;;;;7.23;100.00;99491.75;4987638;28;20186;-71
2024/01/04 01:32:18;;;;;;;4.25;2.53;;;;;;;7.22;100.00;99497.94;4987577;28;20502;-71
2024/01/04 01:34:45;;;;;;;5.72;1.90;;;;;;;7.21;100.00;99508.47;4987737;28;20074;-71
2024/01/04 01:37:14;;;;;;;5.70;2.03;;;;;;;7.22;100.00;99510.16;4986254;28;20050;-71
2024/01/04 01:39:41;;;;;;;4.30;2.03;;;;;;;7.22;100.00;99512.78;5003505;28;20042;-71
2024/01/04 01:42:08;;;;;;;6.18;1.98;;;;;;;7.22;100.00;99521.53;5019826;28;20097;-71
2024/01/04 01:44:35;;;;;;;7.30;2.63;;;;;;;7.25;100.00;99531.03;5019153;28;20053;-72
2024/01/04 01:47:03;;;;;;;5.43;2.30;;;;;;;7.27;100.00;99543.16;4988904;28;20613;-72
2024/01/04 01:49:31;;;;;;;7.18;2.35;;;;;;;7.28;100.00;99541.38;5019600;28;20049;-72
2024/01/04 01:51:59;;;;;;;5.80;2.70;;;;;;;7.28;100.00;99555.38;5017148;28;20422;-72
2024/01/04 01:54:26;;;;;;;7.63;2.60;;;;;;;7.29;100.00;99553.59;4986512;28;20066;-72
2024/01/04 01:56:53;;;;;;;5.90;2.60;;;;;;;7.29;100.00;99548.34;4988192;28;20116;-72
2024/01/04 01:59:21;;;;;;;9.10;2.83;;;;;;;7.30;100.00;99547.44;4987478;28;20125;-72
2024/01/04 02:01:54;;;;;;;7.75;2.20;;;;;;;7.28;100.00;99567.59;4986748;28;20753;-71
2024/01/04 02:04:21;;;;;;;5.65;2.20;;;;;;;7.27;100.00;99576.41;4987391;28;20043;-72
2024/01/04 02:06:48;;;;;;;5.65;2.22;;;;;;;7.24;100.00;99564.25;4990553;28;20062;-72
2024/01/04 02:09:15;;;;;;;5.60;2.00;;;;;;;7.22;100.00;99566.09;4987924;28;20502;-70
2024/01/04 02:11:44;;;;;;;8.30;2.33;;;;;;;7.19;100.00;99568.81;4987373;28;20221;-71
2024/01/04 02:14:11;;;;;;;5.30;1.83;;;;;;;7.21;100.00;99571.38;4990971;28;20133;-70
2024/01/04 02:16:39;;;;;;;3.75;1.75;;;;;;;7.17;100.00;99570.63;4991297;28;20050;-71
2024/01/04 02:19:11;;;;;;;6.40;1.90;;;;;;;7.13;100.00;99576.88;4990580;28;20069;-71
2024/01/04 02:21:38;;;;;;;5.47;1.80;;;;;;;7.10;100.00;99588.34;4988687;28;20075;-70
2024/01/04 02:24:05;;;;;;;4.70;1.80;;;;;;;7.10;100.00;99598.81;4989497;28;20050;-71
2024/01/04 02:26:33;;;;;;;4.78;2.13;;;;;;;7.10;100.00;99605.84;4989129;28;20070;-71
2024/01/04 02:29:00;;;;;;;3.80;1.95;;;;;;;7.07;100.00;99606.78;4973213;28;20627;-71
2024/01/04 02:31:27;;;;;;;5.78;2.05;;;;;;;7.05;100.00;99633.97;4989649;28;20057;-71
2024/01/04 02:33:54;;;;;;;5.60;1.70;;;;;;;7.02;100.00;99631.47;4990289;28;20058;-72
2024/01/04 02:36:22;;;;;;;8.75;1.52;;;;;;;6.95;100.00;99636.91;4990234;28;20648;-73
2024/01/04 02:38:50;;;;;;;4.68;1.30;;;;;;;6.87;100.00;99640.72;4990669;28;20054;-74
2024/01/04 02:41:17;;;;;;;4.13;1.27;;;;;;;6.82;100.00;99640.84;4989162;28;20066;-73
2024/01/04 02:43:44;;;;;;;3.20;0.98;;;;;;;6.77;100.00;99643.63;4990555;28;20540;-73
2024/01/04 02:46:11;;;;;;;4.80;0.85;;;;;;;6.72;100.00;99655.16;4989477;28;20049;-74
2024/01/04 02:48:38;;;;;;;2.15;0.90;;;;;;;6.68;100.00;99667.50;4989959;28;20133;-73
2024/01/04 02:51:06;;;;;;;3.10;1.08;;;;;;;6.64;100.00;99655.44;4989225;28;20038;-73
2024/01/04 02:53:33;;;;;;;3.15;1.10;;;;;;;6.64;100.00;99658.06;4989327;28;20076;-72
2024/01/04 02:56:01;;;;;;;3.83;1.33;;;;;;;6.61;100.00;99658.13;4991006;28;20132;-73
2024/01/04 02:58:28;;;;;;;3.33;1.30;;;;;;;6.60;100.00;99664.28;4990847;28;20046;-72
2024/01/04 03:00:55;;;;;;;3.88;1.20;;;;;;;6.57;100.00;99654.78;4990765;28;20118;-73
2024/01/04 03:03:22;;;;;;;4.05;1.20;;;;;;;6.53;100.00;99661.88;4991108;28;20050;-73
2024/01/04 03:05:51;;;;;;;4.40;1.15;;;;;;;6.53;100.00;99661.88;4989272;28;20046;-73
2024/01/04 03:08:18;;;;;;;2.85;1.13;;;;;;;6.52;100.00;99667.13;4989506;28;20470;-74
2024/01/04 03:10:45;;;;;;;2.53;1.23;;;;;;;6.50;100.00;99661.97;4989623;28;20085;-73
2024/01/04 03:13:12;;;;;;;3.08;1.42;;;;;;;6.46;100.00;99665.56;4991066;28;20050;-74
2024/01/04 03:15:39;;;;;;;5.00;1.50;;;;;;;6.47;100.00;99663.84;4990573;28;20084;-74
2024/01/04 03:18:06;;;;;;;3.45;1.70;;;;;;;6.48;100.00;99668.16;4990593;28;20048;-74
2024/01/04 03:20:33;;;;;;;3.85;1.50;;;;;;;6.47;100.00;99662.06;4990643;28;20048;-73
2024/01/04 03:23:00;;;;;;;4.22;1.75;;;;;;;6.47;100.00;99671.69;4987089;28;20093;-73
2024/01/04 03:25:29;;;;;;;4.40;2.00;;;;;;;6.45;100.00;99674.38;4988182;28;20101;-73
2024/01/04 03:27:56;;;;;;;5.43;2.50;;;;;;;6.47;100.00;99679.53;5020460;28;20038;-73
2024/01/04 03:30:24;;;;;;;4.10;2.40;;;;;;;6.47;100.00;99687.41;4985899;28;20487;-73
2024/01/04 03:32:51;;;;;;;6.13;2.72;;;;;;;6.49;100.00;99675.97;4985218;28;20089;-73
2024/01/04 03:35:18;;;;;;;7.35;3.15;;;;;;;6.52;100.00;99694.19;4987060;28;20046;-73
2024/01/04 03:37:45;;;;;;;7.78;3.58;;;;;;;6.55;100.00;99685.38;4986823;28;20577;-72
2024/01/04 03:40:13;;;;;;;7.88;4.22;;;;;;;6.59;100.00;99684.38;4985464;28;20149;-72
2024/01/04 03:42:40;;;;;;;13.32;5.20;;;;;;;6.65;100.00;99699.06;4988283;28;20049;-73
2024/01/04 03:45:07;;;;;;;15.52;8.02;;;;;;;6.69;100.00;99708.50;4987687;28;20062;-72
2024/01/04 03:47:35;;;;;;;11.25;4.88;;;;;;;6.73;100.00;99702.28;4990108;28;20474;-73
2024/01/04 03:50:05;;;;;;;9.25;5.18;;;;;;;6.77;100.00;99706.47;4988657;28;20042;-73
2024/01/04 03:52:35;;;;;;;6.70;3.25;;;;;;;6.81;100.00;99713.34;4968141;28;20070;-72
2024/01/04 03:55:03;;;;;;;10.10;3.58;;;;;;;6.83;100.00;99722.03;4979949;28;20034;-72
2024/01/04 03:57:30;;;;;;;11.98;5.05;;;;;;;6.86;100.00;99725.44;4989187;28;20061;-72
2024/01/04 03:59:57;;;;;;;9.70;4.60;;;;;;;6.86;100.00;99726.28;4988528;28;20039;-72
2024/01/04 04:02:24;;;;;;;7.13;2.60;;;;;;;6.86;100.00;99726.28;4988433;28;20046;-72
2024/01/04 04:04:51;;;;;;;6.78;2.78;;;;;;;6.81;100.00;99734.31;5021170;28;20042;-72
2024/01/04 04:07:18;;;;;;;5.15;2.13;;;;;;;6.75;100.00;99734.53;4987768;28;20130;-72
2024/01/04 04:09:45;;;;;;;4.97;1.85;;;;;;;6.72;100.00;99739.84;4988734;28;20461;-72
2024/01/04 04:12:12;;;;;;;4.13;1.23;;;;;;;6.72;100.00;99747.69;4989141;28;20042;-71
2024/01/04 04:14:41;;;;;;;3.03;1.40;;;;;;;6.63;100.00;99746.22;4990071;28;20052;-71
2024/01/04 04:17:08;;;;;;;4.75;1.70;;;;;;;6.60;100.00;99759.44;4988817;28;20035;-71
2024/01/04 04:19:36;;;;;;;3.30;1.60;;;;;;;6.60;100.00;99774.28;4989013;28;20533;-71
2024/01/04 04:22:03;;;;;;;3.47;1.50;;;;;;;6.60;100.00;99779.50;4988734;28;20041;-70
2024/01/04 04:24:31;;;;;;;2.85;1.10;;;;;;;6.56;100.00;99764.81;4988352;28;20732;-71
2024/01/04 04:26:58;;;;;;;2.58;1.40;;;;;;;6.50;100.00;99758.84;4988849;28;20045;-71
2024/01/04 04:29:25;;;;;;;3.58;1.17;;;;;;;6.48;100.00;99757.19;4988343;28;20046;-71
2024/01/04 04:31:54;;;;;;;5.75;1.50;;;;;;;6.44;100.00;99760.78;4989158;28;20054;-71
2024/01/04 04:34:21;;;;;;;4.65;1.50;;;;;;;6.42;100.00;99763.47;4988591;28;20096;-71
2024/01/04 04:36:49;;;;;;;3.38;1.30;;;;;;;6.42;100.00;99763.47;4987696;28;20637;-71
2024/01/04 04:39:16;;;;;;;3.30;1.58;;;;;;;6.37;100.00;99765.34;4987065;28;20706;-71
2024/01/04 04:41:43;;;;;;;3.63;1.90;;;;;;;6.39;100.00;99775.78;4988532;28;20049;-71
2024/01/04 04:44:10;;;;;;;4.07;1.50;;;;;;;6.39;100.00;99783.66;4988453;28;20053;-71
2024/01/04 04:46:38;;;;;;;5.07;1.40;;;;;;;6.41;100.00;99792.31;4988857;28;20046;-71
2024/01/04 04:49:05;;;;;;;4.20;1.70;;;;;;;6.40;100.00;99795.84;4988724;28;20506;-70
2024/01/04 04:51:32;;;;;;;4.43;2.03;;;;;;;6.41;100.00;99789.72;4988020;28;20446;-72
2024/01/04 04:53:59;;;;;;;5.25;1.63;;;;;;;6.45;100.00;99801.78;4988868;28;20081;-71
2024/01/04 04:56:27;;;;;;;3.75;1.60;;;;;;;6.43;100.00;99806.19;4988056;28;20046;-71
2024/01/04 04:58:54;;;;;;;5.30;2.40;;;;;;;6.44;100.00;99813.16;4986960;28;20093;-71
2024/01/04 05:01:21;;;;;;;2.88;1.77;;;;;;;6.41;100.00;99803.63;4988878;28;20131;-70
2024/01/04 05:03:49;;;;;;;5.50;2.03;;;;;;;6.41;100.00;99805.41;4987407;28;20047;-70
2024/01/04 05:06:16;;;;;;;4.82;2.15;;;;;;;6.40;100.00;99804.53;5000633;28;20045;-70
2024/01/04 05:08:44;;;;;;;4.38;2.53;;;;;;;6.39;100.00;99801.97;5006959;28;20517;-71
2024/01/04 05:11:11;;;;;;;4.88;2.17;;;;;;;6.41;100.00;99808.03;4995561;28;20082;-70
2024/01/04 05:13:38;;;;;;;11.13;2.88;;;;;;;6.42;100.00;99810.59;4987946;28;20060;-71
2024/01/04 05:16:06;;;;;;;5.57;2.25;;;;;;;6.42;100.00;99800.13;4988589;28;20050;-70
2024/01/04 05:18:33;;;;;;;6.55;2.90;;;;;;;6.39;100.00;99794.97;4988098;28;20117;-71
2024/01/04 05:21:01;;;;;;;9.13;5.05;;;;;;;6.45;100.00;99807.03;4988488;28;20426;-71
2024/01/04 05:23:28;;;;;;;10.55;5.97;;;;;;;6.54;100.00;99809.34;4987857;28;20050;-70
2024/01/04 05:25:55;;;;;;;11.40;6.50;;;;;;;6.57;100.00;99800.53;4988787;28;20249;-70
2024/01/04 05:28:22;;;;;;;12.77;7.03;;;;;;;6.63;100.00;99808.22;4986722;28;20047;-70
2024/01/04 05:30:49;;;;;;;14.10;7.35;;;;;;;6.68;100.00;99822.91;4987668;28;20093;-71
2024/01/04 05:33:17;;;;;;;16.52;7.97;;;;;;;6.76;100.00;99827.91;4985369;28;20474;-70
2024/01/04 05:35:45;;;;;;;11.00;5.97;;;;;;;6.79;100.00;99833.03;4985451;28;20670;-71
2024/01/04 05:38:12;;;;;;;9.20;4.93;;;;;;;6.80;100.00;99837.38;4985927;28;20047;-70
2024/01/04 05:40:39;;;;;;;11.05;5.63;;;;;;;6.76;100.00;99832.28;4987515;28;20072;-70
2024/01/04 05:43:06;;;;;;;15.93;6.45;;;;;;;6.74;100.00;99832.34;4987542;28;20121;-70
2024/01/04 05:45:33;;;;;;;13.35;7.00;;;;;;;6.78;100.00;99836.56;4987480;28;20066;-70
2024/01/04 05:48:03;;;;;;;16.63;6.75;;;;;;;6.81;100.00;99833.84;4990101;28;20043;-70
2024/01/04 05:50:30;;;;;;;16.95;7.07;;;;;;;6.84;100.00;99840.75;4990664;28;20050;-70
2024/01/04 05:52:58;;;;;;;14.27;6.60;;;;;;;6.89;100.00;99851.09;5013652;28;20612;-70
2024/01/04 05:55:25;;;;;;;14.68;6.32;;;;;;;6.91;100.00;99851.91;4989280;28;20058;-70
2024/01/04 05:57:52;;;;;;;15.15;5.60;;;;;;;6.93;100.00;99847.50;4990239;28;20096;-71
2024/01/04 06:00:21;;;;;;;13.93;5.95;;;;;;;6.95;100.00;99857.00;4988738;28;20073;-71
2024/01/04 06:02:49;;;;;;;15.85;5.15;;;;;;;6.98;100.00;99861.28;5004340;28;20046;-70
2024/01/04 06:05:16;;;;;;;10.27;5.15;;;;;;;6.98;100.00;99870.03;4996057;28;20034;-70
2024/01/04 06:07:43;;;;;;;12.60;5.20;;;;;;;6.99;100.00;99873.50;5011615;28;20038;-71
2024/01/04 06:10:10;;;;;;;10.25;5.03;;;;;;;6.99;100.00;99876.09;5010118;28;20186;-71
2024/01/04 06:12:37;;;;;;;8.88;4.10;;;;;;;6.98;100.00;99883.13;4991541;28;20180;-70
2024/01/04 06:15:05;;;;;;;11.63;4.45;;;;;;;6.99;100.00;99889.22;4990533;28;20069;-70
2024/01/04 06:17:32;;;;;;;7.03;3.90;;;;;;;6.95;100.00;99900.72;4990996;28;20437;-71
2024/01/04 06:19:59;;;;;;;7.47;3.75;;;;;;;6.92;100.00;99892.94;4991781;28;20042;-70
2024/01/04 06:22:26;;;;;;;7.90;3.40;;;;;;;6.87;100.00;99893.06;4990693;28;20053;-70
2024/01/04 06:24:53;;;;;;;7.55;3.70;;;;;;;6.82;100.00;99897.56;4990424;28;20133;-70
2024/01/04 06:27:20;;;;;;;8.70;3.60;;;;;;;6.81;100.00;99906.38;4991026;28;20731;-71
2024/01/04 06:29:47;;;;;;;8.30;3.83;;;;;;;6.82;100.00;99908.94;4989270;28;20096;-70
2024/01/04 06:32:14;;;;;;;6.25;3.63;;;;;;;6.83;100.00;99910.66;4990078;28;20446;-71
2024/01/04 06:34:41;;;;;;;7.05;3.10;;;;;;;6.89;100.00;99920.09;4988068;28;20129;-71
2024/01/04 06:37:10;;;;;;;6.82;3.03;;;;;;;6.93;100.00;99920.84;4989660;28;20046;-71
2024/01/04 06:39:37;;;;;;;7.97;3.38;;;;;;;6.99;100.00;99925.91;4991239;28;20049;-71
2024/01/04 06:42:04;;;;;;;6.50;3.42;;;;;;;6.99;100.00;99931.16;4990707;28;20124;-71
2024/01/04 06:44:33;;;;;;;5.93;2.92;;;;;;;6.99;100.00;99939.88;4990080;28;20078;-71
2024/01/04 06:47:10;;;;;;;7.35;3.67;;;;;;;7.01;100.00;99945.06;4988463;28;20042;-71
2024/01/04 06:49:37;;;;;;;10.40;4.10;;;;;;;7.02;100.00;99949.41;4990844;28;20046;-76
2024/01/04 06:52:05;;;;;;;6.80;3.60;;;;;;;7.05;100.00;99958.94;4990727;28;20046;-70
2024/01/04 06:54:32;;;;;;;8.60;4.00;;;;;;;7.06;100.00;99960.66;4987922;28;20042;-71
2024/01/04 06:56:59;;;;;;;8.70;4.05;;;;;;;7.06;100.00;99956.28;4988312;28;20125;-71
2024/01/04 06:59:26;;;;;;;11.40;4.35;;;;;;;7.06;100.00;99964.16;4986569;28;20046;-72
2024/01/04 07:01:53;;;;;;;10.50;4.82;;;;;;;7.08;100.00;99975.41;4988880;28;20442;-71
2024/01/04 07:04:20;;;;;;;12.43;5.50;;;;;;;7.10;100.00;99978.88;4988388;28;20546;-71
2024/01/04 07:06:48;;;;;;;12.27;5.60;;;;;;;7.08;100.00;99971.97;4988404;28;20406;-71
2024/01/04 07:09:16;;;;;;;10.30;6.03;;;;;;;7.09;100.00;99971.91;4987114;28;20070;-71
2024/01/04 07:11:43;;;;;;;9.07;5.82;;;;;;;7.09;100.00;99963.19;4989420;28;20074;-71
2024/01/04 07:14:10;;;;;;;11.93;6.85;;;;;;;7.08;100.00;99975.41;4997731;28;20054;-71
2024/01/04 07:16:45;;;;;;;15.50;7.25;;;;;;;7.09;100.00;99973.69;4987688;28;20074;-71
2024/01/04 07:19:13;;;;;;;11.75;7.25;;;;;;;7.08;100.00;99983.28;4991771;28;20078;-71
2024/01/04 07:21:42;;;;;;;13.27;7.32;;;;;;;7.11;100.00;99993.69;4990220;28;20054;-71
2024/01/04 07:24:10;;;;;;;15.02;7.72;;;;;;;7.12;100.00;99984.91;4986928;28;20610;-71
2024/01/04 07:26:37;;;;;;;10.43;6.50;;;;;;;7.13;100.00;99985.78;4988683;28;20042;-71
2024/01/04 07:29:04;;;;;;;13.30;6.80;;;;;;;7.14;100.00;99996.22;5017619;28;20060;-70
2024/01/04 07:31:31;;;;;;;17.25;8.30;;;;;;;7.13;100.00;100005.00;4989608;28;20058;-71
2024/01/04 07:34:00;;;;;;;15.77;8.82;;;;;;;7.14;100.00;100006.72;4987646;28;20482;-71
2024/01/04 07:36:28;;;;;;;13.55;7.93;;;;;;;7.13;100.00;100009.34;4987477;28;20495;-71
2024/01/04 07:38:58;;;;;;;12.90;7.88;;;;;;;7.16;100.00;100011.91;4988026;28;20046;-71
2024/01/04 07:41:25;;;;;;;11.98;7.13;;;;;;;7.14;100.00;100019.81;4988855;28;20047;-70
2024/01/04 07:43:52;;;;;;;10.13;6.72;;;;;;;7.12;100.00;100018.16;4989529;28;20473;-70
2024/01/04 07:46:19;;;;;;;12.73;6.65;;;;;;;7.12;100.00;100032.09;4988515;28;20254;-70
2024/01/04 07:48:46;;;;;;;9.52;6.07;;;;;;;7.13;100.00;100041.69;4988474;28;20035;-70
2024/01/04 07:51:14;;;;;;;9.27;4.95;;;;;;;7.13;100.00;100044.31;4988667;28;20415;-70
2024/01/04 07:53:41;;;;;;;8.35;4.68;;;;;;;7.12;100.00;100036.50;4986666;28;20034;-70
2024/01/04 07:56:08;;;;;;;9.38;4.47;;;;;;;7.10;100.00;100041.75;4989555;28;20034;-71
2024/01/04 07:58:35;;;;;;;13.52;5.88;;;;;;;7.11;100.00;100042.66;4987216;28;20125;-70
2024/01/04 08:01:02;;;;;;;13.00;4.88;;;;;;;7.11;100.00;100042.66;4985255;28;20259;-71
2024/01/04 08:03:30;;;;;;;12.55;4.43;;;;;;;7.11;100.00;100046.13;4987331;28;20046;-71
2024/01/04 08:05:58;;;;;;;9.02;4.43;;;;;;;7.19;100.00;100047.66;4988292;28;20038;-70
2024/01/04 08:08:27;;;;;;;10.63;4.32;;;;;;;7.25;100.00;100040.47;4989317;28;20125;-72
2024/01/04 08:10:54;;;;;;;9.60;4.32;;;;;;;7.35;100.00;100043.69;4987549;28;20129;-70
2024/01/04 08:13:21;;;;;;;9.82;4.63;;;;;;;7.39;100.00;100050.53;4988786;28;20042;-70
2024/01/04 08:15:50;;;;;;;10.85;4.18;;;;;;;7.45;100.00;100052.13;5019646;28;20521;-70
2024/01/04 08:18:22;;;;;;;7.68;4.10;;;;;;;7.51;100.00;100056.31;4983517;28;20038;-69
2024/01/04 08:20:49;;;;;;;7.60;3.35;;;;;;;7.57;100.00;100051.75;4981111;28;20064;-70
2024/01/04 08:23:16;;;;;;;5.35;2.90;;;;;;;7.57;100.00;100054.38;4984917;28;20632;-70
2024/01/04 08:25:44;;;;;;;3.88;3.03;;;;;;;7.61;100.00;100056.03;4989152;28;20121;-70
2024/01/04 08:28:12;;;;;;;7.57;3.00;;;;;;;7.68;100.00;100050.56;4988877;28;20042;-70
2024/01/04 08:30:39;;;;;;;5.07;3.20;;;;;;;7.73;100.00;100056.56;4989751;28;20048;-70
2024/01/04 08:33:07;;;;;;;5.53;2.70;;;;;;;7.72;100.00;100060.94;4987956;28;20042;-70
2024/01/04 08:35:34;;;;;;;6.18;3.00;;;;;;;7.67;100.00;100062.84;4987633;28;20073;-70
2024/01/04 08:38:01;;;;;;;4.15;2.78;;;;;;;7.66;100.00;100071.63;4986239;28;20042;-70
2024/01/04 08:40:30;;;;;;;5.05;2.60;;;;;;;7.62;100.00;100064.72;4986203;28;20053;-70
2024/01/04 08:42:57;;;;;;;5.70;2.47;;;;;;;7.61;100.00;100066.50;4981738;28;20046;-70
2024/01/04 08:45:25;;;;;;;6.28;2.28;;;;;;;7.59;100.00;100070.94;4986164;28;20082;-70
2024/01/04 08:47:52;;;;;;;6.07;2.15;;;;;;;7.54;100.00;100066.75;4988177;28;20038;-70
2024/01/04 08:50:20;;;;;;;3.30;1.98;;;;;;;7.51;100.00;100072.06;4986169;28;20096;-71
2024/01/04 08:52:47;;;;;;;4.43;1.95;;;;;;;7.50;100.00;100072.97;4988332;28;20121;-70
2024/01/04 08:55:15;;;;;;;3.60;1.60;;;;;;;7.53;100.00;100086.00;4990474;28;20073;-71
2024/01/04 08:57:42;;;;;;;3.78;1.73;;;;;;;7.63;100.00;100089.22;5010947;28;20043;-70
2024/01/04 09:00:11;;;;;;;3.70;2.10;;;;;;;7.68;100.00;100090.78;4986940;28;20053;-70
2024/01/04 09:02:38;;;;;;;4.35;2.13;;;;;;;7.74;100.00;100094.97;4986730;28;20050;-70
2024/01/04 09:05:07;;;;;;;3.33;2.58;;;;;;;7.75;100.00;100104.56;4991124;28;20125;-70
2024/01/04 09:07:34;;;;;;;5.63;2.30;;;;;;;7.70;100.00;100101.25;4987269;28;20054;-71
2024/01/04 09:10:01;;;;;;;3.47;2.30;;;;;;;7.62;100.00;100106.72;4989925;28;20113;-70
2024/01/04 09:12:28;;;;;;;6.32;2.53;;;;;;;7.52;100.00;100127.13;4988731;28;20085;-71
2024/01/04 09:14:55;;;;;;;3.83;1.95;;;;;;;7.45;100.00;100115.94;5002107;28;20057;-71
2024/01/04 09:17:23;;;;;;;5.03;1.60;;;;;;;7.37;100.00;100115.31;4988047;28;20065;-70
2024/01/04 09:19:50;;;;;;;4.10;1.40;;;;;;;7.31;100.00;100120.72;4970441;28;20046;-70
2024/01/04 09:22:18;;;;;;;5.05;1.50;;;;;;;7.25;100.00;100119.13;4988285;28;20084;-70
2024/01/04 09:24:45;;;;;;;4.32;1.80;;;;;;;7.22;100.00;100128.84;4987032;28;20604;-70
2024/01/04 09:27:12;;;;;;;4.85;2.10;;;;;;;7.20;100.00;100133.25;4988714;28;20038;-71
2024/01/04 09:29:41;;;;;;;5.30;1.70;;;;;;;7.21;100.00;100142.84;4988518;28;20046;-71
2024/01/04 09:32:08;;;;;;;3.78;1.90;;;;;;;7.19;100.00;100140.28;4991577;28;20461;-70
2024/01/04 09:34:35;;;;;;;4.38;1.75;;;;;;;7.21;100.00;100146.34;4989395;28;20054;-70
2024/01/04 09:37:03;;;;;;;2.05;1.20;;;;;;;7.26;100.00;100140.97;4991288;28;20062;-70
2024/01/04 09:39:30;;;;;;;3.53;1.30;;;;;;;7.30;100.00;100147.81;4991985;28;20049;-70
2024/01/04 09:41:59;;;;;;;2.88;1.55;;;;;;;7.30;100.00;100143.47;4987806;28;20050;-70
2024/01/04 09:44:32;;;;;;;2.72;1.42;;;;;;;7.33;100.00;100146.88;4988937;28;20270;-71
2024/01/04 09:47:09;;;;;;;4.50;2.10;;;;;;;7.36;100.00;100152.91;4991866;28;20042;-71
2024/01/04 09:49:37;;;;;;;20.00;17.85;;;;;;;7.40;100.00;100158.94;4989500;28;20061;-70
2024/01/04 09:52:06;;;;;;;29.85;26.85;;;;;;;7.43;100.00;100162.31;4991906;28;20038;-70
2024/01/04 09:54:34;;;;;;;8.50;3.92;;;;;;;7.47;100.00;100170.97;4992240;28;20065;-70
2024/01/04 09:57:03;;;;;;;13.98;9.35;;;;;;;7.46;100.00;100167.50;4989528;28;20120;-70
2024/01/04 09:59:31;;;;;;;18.77;15.25;;;;;;;7.45;100.00;100170.13;4986831;28;20156;-71
2024/01/04 10:02:02;;;;;;;13.82;10.15;;;;;;;7.43;100.00;100177.19;4991410;28;20042;-70
2024/01/04 10:04:30;;;;;;;15.90;11.43;;;;;;;7.43;100.00;100172.81;5006334;28;20572;-70
2024/01/04 10:07:06;;;;;;;14.50;7.97;;;;;;;7.44;100.00;100173.66;5016952;28;20045;-70
2024/01/04 10:10:01;;;;;;;26.42;17.73;;;;;;;7.49;100.00;100184.91;5007899;28;20041;-70
2024/01/04 10:12:32;;;;;;;14.95;9.73;;;;;;;7.56;100.00;100183.81;4989294;28;20050;-70
2024/01/04 10:15:00;;;;;;;18.02;11.52;;;;;;;7.60;100.00;100187.22;4991918;28;20050;-70
2024/01/04 10:17:27;;;;;;;13.48;8.32;;;;;;;7.66;100.00;100181.81;5005333;28;20054;-70
2024/01/04 10:19:55;;;;;;;26.23;14.35;;;;;;;7.74;100.00;100181.56;4997392;28;20072;-72
2024/01/04 10:22:23;;;;;;;13.43;7.28;;;;;;;7.82;100.00;100189.22;4992298;28;20053;-70
2024/01/04 10:24:51;;;;;;;13.35;7.20;;;;;;;7.87;100.00;100190.81;4991797;28;20093;-70
2024/01/04 10:27:18;;;;;;;21.67;11.63;;;;;;;7.91;100.00;100197.69;4993579;28;20055;-70
2024/01/04 10:29:50;;;;;;;21.95;12.65;;;;;;;7.95;100.00;100193.22;4994084;28;20042;-70
2024/01/04 10:32:19;;;;;;;18.42;7.68;;;;;;;7.98;100.00;100198.38;4990963;28;20065;-71
2024/01/04 10:34:46;;;;;;;11.75;7.07;;;;;;;8.00;100.00;100196.53;4989098;28;20104;-71
2024/01/04 10:37:22;;;;;;;11.93;7.03;;;;;;;8.01;100.00;100202.66;4986863;28;20100;-70
2024/01/04 10:39:58;;;;;;;11.20;6.05;;;;;;;8.01;100.00;100203.50;4983841;28;20137;-70
2024/01/04 10:42:26;;;;;;;12.63;6.20;;;;;;;8.03;100.00;100203.50;4983656;28;21685;-70
2024/01/04 10:44:55;;;;;;;8.85;5.68;;;;;;;8.08;100.00;100210.31;4990296;28;20495;-70
2024/01/04 10:47:23;;;;;;;6.95;4.32;;;;;;;8.14;100.00;100205.78;4990356;28;20038;-70
2024/01/04 10:49:59;;;;;;;8.57;4.00;;;;;;;8.23;100.00;100202.88;4988788;28;20050;-70
2024/01/04 10:52:31;;;;;;;6.90;3.20;;;;;;;8.27;100.00;100201.00;4988674;28;20496;-70
2024/01/04 10:55:02;;;;;;;5.68;3.08;;;;;;;8.33;100.00;100204.31;5002087;28;20042;-74
2024/01/04 10:57:31;;;;;;;7.68;3.97;;;;;;;8.36;100.00;100208.59;4988267;28;20391;-70
2024/01/04 11:00:03;;;;;;;6.05;3.28;;;;;;;8.39;100.00;100209.34;4984452;28;20038;-71
2024/01/04 11:02:35;;;;;;;20.67;18.42;;;;;;;8.46;100.00;100206.56;4991125;28;20057;-70
2024/01/04 11:05:05;;;;;;;8.15;4.15;;;;;;;8.51;100.00;100210.78;4994767;28;20046;-70
2024/01/04 11:07:35;;;;;;;5.78;3.15;;;;;;;8.50;100.00;100214.31;4989055;28;20038;-70
2024/01/04 11:10:03;;;;;;;8.95;5.13;;;;;;;8.50;100.00;100222.19;4988539;28;20103;-70
2024/01/04 11:12:32;;;;;;;5.97;2.45;;;;;;;8.53;100.00;100214.22;4997416;28;20046;-70
2024/01/04 11:15:00;;;;;;;5.50;3.75;;;;;;;8.51;100.00;100213.41;4999495;28;20502;-70
2024/01/04 11:17:38;;;;;;;7.07;2.90;;;;;;;8.51;100.00;100220.41;5020287;28;20124;-71
2024/01/04 11:20:49;;;;;;;4.53;2.30;;;;;;;8.52;100.00;100222.13;4988067;28;20057;-71
2024/01/04 11:24:03;;;;;;;7.95;4.65;;;;;;;8.54;100.00;100222.97;4992433;28;20038;-71
2024/01/04 11:26:48;;;;;;;5.70;4.47;;;;;;;8.63;100.00;100217.41;4980294;28;20054;-71
2024/01/04 11:29:16;;;;;;;7.30;3.60;;;;;;;8.68;100.00;100207.63;4988887;28;20046;-71
2024/01/04 11:31:44;;;;;;;5.88;2.45;;;;;;;8.76;100.00;100209.97;4991895;28;20530;-71
2024/01/04 11:34:13;;;;;;;5.53;2.63;;;;;;;8.83;100.00;100215.91;4988378;28;20049;-70